Time;durP1;ratioP1;P1;durP2;ratioP2;P2;SDS_P1;SDS_P2;PMS_P1;PMS_P2;Temp;Humidity;BMP_temperature;BMP_pressure;BME280_temperature;BME280_humidity;BME280_pressure;Samples;Min_cycle;Max_cycle;Signal;HPM_P1;HPM_P2
2021/12/12 00:01:22;;;;;;;6.50;3.85;;;;;;;;;;5117682;27;20192;-75
2021/12/12 00:03:52;;;;;;;7.32;4.43;;;;;;;;;;5132256;27;20188;-75
2021/12/12 00:06:22;;;;;;;9.80;5.10;;;;;;;;;;5115980;28;20231;-75
2021/12/12 00:08:51;;;;;;;5.82;4.80;;;;;;;;;;5124298;27;20195;-75
2021/12/12 00:11:20;;;;;;;9.95;4.20;;;;;;;;;;5140469;27;20203;-75
2021/12/12 00:13:52;;;;;;;9.65;4.70;;;;;;;;;;5135639;27;20212;-75
2021/12/12 00:16:19;;;;;;;12.52;5.20;;;;;;;;;;5133387;27;20222;-75
2021/12/12 00:18:46;;;;;;;11.55;5.57;;;;;;;;;;5122526;27;20200;-75
2021/12/12 00:21:15;;;;;;;14.52;4.43;;;;;;;;;;5130618;27;20211;-75
2021/12/12 00:23:43;;;;;;;5.18;4.07;;;;;;;;;;5127211;27;20203;-75
2021/12/12 00:26:11;;;;;;;12.18;5.00;;;;;;;;;;5136292;27;20230;-75
2021/12/12 00:28:39;;;;;;;10.93;5.38;;;;;;;;;;5140114;27;20199;-75
2021/12/12 00:31:11;;;;;;;8.38;4.05;;;;;;;;;;5133222;27;20670;-75
2021/12/12 00:33:40;;;;;;;6.63;4.05;;;;;;;;;;5132123;27;20191;-76
2021/12/12 00:36:07;;;;;;;8.38;4.13;;;;;;;;;;5132337;27;20212;-76
2021/12/12 00:38:35;;;;;;;11.18;4.00;;;;;;;;;;5134125;27;20720;-76
2021/12/12 00:41:07;;;;;;;14.27;4.15;;;;;;;;;;5123674;27;20197;-75
2021/12/12 00:43:36;;;;;;;9.55;4.60;;;;;;;;;;5125152;27;20196;-76
2021/12/12 00:46:05;;;;;;;5.82;4.15;;;;;;;;;;5135784;27;20688;-75
2021/12/12 00:48:34;;;;;;;8.30;3.83;;;;;;;;;;5139825;27;20569;-76
2021/12/12 00:51:02;;;;;;;6.93;4.50;;;;;;;;;;5138485;27;20188;-75
2021/12/12 00:53:30;;;;;;;6.97;3.85;;;;;;;;;;5132608;27;20219;-75
2021/12/12 00:55:57;;;;;;;7.78;4.18;;;;;;;;;;5133480;27;20215;-76
2021/12/12 00:58:25;;;;;;;8.45;4.97;;;;;;;;;;5130507;27;20577;-75
2021/12/12 01:00:53;;;;;;;7.07;4.25;;;;;;;;;;5113043;28;20204;-75
2021/12/12 01:03:22;;;;;;;11.23;4.13;;;;;;;;;;5111756;28;20236;-75
2021/12/12 01:05:51;;;;;;;5.90;4.13;;;;;;;;;;5118121;27;20218;-75
2021/12/12 01:08:18;;;;;;;11.15;4.25;;;;;;;;;;5116228;27;20192;-75
2021/12/12 01:10:47;;;;;;;8.30;4.95;;;;;;;;;;5140347;27;20196;-75
2021/12/12 01:13:14;;;;;;;4.10;3.45;;;;;;;;;;5140920;27;20206;-76
2021/12/12 01:15:44;;;;;;;7.88;3.70;;;;;;;;;;5112534;27;20227;-76
2021/12/12 01:18:13;;;;;;;7.88;4.95;;;;;;;;;;5110932;27;20684;-76
2021/12/12 01:20:42;;;;;;;6.53;3.40;;;;;;;;;;5112281;28;20645;-75
2021/12/12 01:23:12;;;;;;;9.23;4.15;;;;;;;;;;5112398;28;20196;-76
2021/12/12 01:25:43;;;;;;;9.43;3.92;;;;;;;;;;5120737;27;20211;-75
2021/12/12 01:28:11;;;;;;;9.98;4.60;;;;;;;;;;5136212;27;20185;-76
2021/12/12 01:31:01;;;;;;;9.98;4.10;;;;;;;;;;5148170;27;20223;-76
2021/12/12 01:33:34;;;;;;;6.68;3.60;;;;;;;;;;5153386;27;20282;-76
2021/12/12 01:36:03;;;;;;;6.97;3.50;;;;;;;;;;5152055;27;20219;-76
2021/12/12 01:41:12;;;;;;;6.53;3.80;;;;;;;;;;5141421;27;20191;-75
2021/12/12 01:43:42;;;;;;;7.13;4.00;;;;;;;;;;5140856;27;20199;-75
2021/12/12 01:46:14;;;;;;;4.88;3.63;;;;;;;;;;5144509;27;20223;-74
2021/12/12 01:48:46;;;;;;;12.50;4.20;;;;;;;;;;5132687;27;20191;-76
2021/12/12 01:51:14;;;;;;;10.73;4.22;;;;;;;;;;5132444;27;20200;-75
2021/12/12 01:53:45;;;;;;;7.90;3.45;;;;;;;;;;5132775;27;20199;-75
2021/12/12 01:56:17;;;;;;;7.28;4.00;;;;;;;;;;5124197;27;20220;-76
2021/12/12 01:58:46;;;;;;;9.40;3.88;;;;;;;;;;5127748;27;20208;-76
2021/12/12 02:01:15;;;;;;;8.13;4.18;;;;;;;;;;5140844;27;20679;-75
2021/12/12 02:03:45;;;;;;;10.55;4.75;;;;;;;;;;5150436;27;20292;-75
2021/12/12 02:06:17;;;;;;;9.30;4.28;;;;;;;;;;5110085;28;20212;-75
2021/12/12 02:08:46;;;;;;;6.95;3.85;;;;;;;;;;5111963;28;20224;-75
2021/12/12 02:11:17;;;;;;;8.50;4.28;;;;;;;;;;5111695;28;20558;-76
2021/12/12 02:13:51;;;;;;;7.30;4.43;;;;;;;;;;5119601;27;20274;-75
2021/12/12 02:16:18;;;;;;;7.30;4.20;;;;;;;;;;5139851;27;20212;-76
2021/12/12 02:18:50;;;;;;;7.15;4.28;;;;;;;;;;5126790;27;20219;-75
2021/12/12 02:21:22;;;;;;;8.70;4.50;;;;;;;;;;5128962;27;20203;-74
2021/12/12 02:24:20;;;;;;;11.55;5.07;;;;;;;;;;5128684;27;20207;-75
2021/12/12 02:37:35;;;;;;;6.00;4.50;;;;;;;;;;5108735;28;20696;-75
2021/12/12 02:40:05;;;;;;;5.80;4.10;;;;;;;;;;5111117;28;20201;-75
2021/12/12 02:42:33;;;;;;;9.45;4.30;;;;;;;;;;5109762;28;20207;-75
2021/12/12 02:45:01;;;;;;;7.28;3.97;;;;;;;;;;5120848;27;20549;-76
2021/12/12 02:47:34;;;;;;;12.40;4.43;;;;;;;;;;5112802;28;20521;-75
2021/12/12 02:50:10;;;;;;;7.65;3.88;;;;;;;;;;5111059;28;20249;-76
2021/12/12 02:52:38;;;;;;;9.32;4.65;;;;;;;;;;5119817;27;20200;-76
2021/12/12 02:55:09;;;;;;;8.35;4.43;;;;;;;;;;5139132;27;20212;-76
2021/12/12 02:57:36;;;;;;;7.38;4.20;;;;;;;;;;5131498;27;20222;-76
2021/12/12 03:00:05;;;;;;;8.90;4.50;;;;;;;;;;5129426;27;20625;-75
2021/12/12 03:02:39;;;;;;;6.35;4.60;;;;;;;;;;5128203;27;20566;-75
2021/12/12 03:05:07;;;;;;;7.90;4.32;;;;;;;;;;5127511;27;20215;-75
2021/12/12 03:07:35;;;;;;;5.10;4.05;;;;;;;;;;5122168;27;20197;-75
2021/12/12 03:10:06;;;;;;;8.85;4.55;;;;;;;;;;5112743;28;20196;-75
2021/12/12 03:12:35;;;;;;;7.28;4.30;;;;;;;;;;5112700;28;20196;-76
2021/12/12 03:15:06;;;;;;;5.55;4.07;;;;;;;;;;5119825;27;20233;-75
2021/12/12 03:17:33;;;;;;;6.15;4.35;;;;;;;;;;5139328;27;20219;-76
2021/12/12 03:20:06;;;;;;;6.68;3.80;;;;;;;;;;5131080;27;20428;-75
2021/12/12 03:22:33;;;;;;;8.48;4.13;;;;;;;;;;5129106;27;20679;-76
2021/12/12 03:25:00;;;;;;;10.27;4.47;;;;;;;;;;5130478;27;20212;-75
2021/12/12 03:27:28;;;;;;;8.38;4.03;;;;;;;;;;5130450;27;20203;-76
2021/12/12 03:29:56;;;;;;;5.47;3.90;;;;;;;;;;5129414;27;20191;-75
2021/12/12 03:32:24;;;;;;;8.40;3.97;;;;;;;;;;5137279;27;20199;-75
2021/12/12 03:34:52;;;;;;;7.68;4.45;;;;;;;;;;5143947;27;20215;-75
2021/12/12 03:37:23;;;;;;;6.22;4.25;;;;;;;;;;5151272;27;20221;-75
2021/12/12 03:39:52;;;;;;;7.00;4.35;;;;;;;;;;5112634;27;20231;-75
2021/12/12 03:42:22;;;;;;;7.07;4.50;;;;;;;;;;5108694;28;20197;-75
2021/12/12 03:44:50;;;;;;;7.32;4.20;;;;;;;;;;5124488;27;20230;-75
2021/12/12 03:47:21;;;;;;;7.88;4.68;;;;;;;;;;5136365;27;20196;-75
2021/12/12 03:49:49;;;;;;;8.18;4.22;;;;;;;;;;5135855;27;20192;-75
2021/12/12 03:52:17;;;;;;;15.27;5.47;;;;;;;;;;5128080;28;20192;-76
2021/12/12 03:54:44;;;;;;;9.68;3.95;;;;;;;;;;5127002;28;20224;-75
2021/12/12 03:57:12;;;;;;;10.05;4.50;;;;;;;;;;5128764;27;20671;-75
2021/12/12 03:59:39;;;;;;;9.57;5.05;;;;;;;;;;5130484;27;20196;-75
2021/12/12 04:02:07;;;;;;;11.43;4.75;;;;;;;;;;5126041;27;20190;-76
2021/12/12 04:04:37;;;;;;;11.43;4.60;;;;;;;;;;5135998;27;20200;-76
2021/12/12 04:07:06;;;;;;;10.52;4.85;;;;;;;;;;5134856;27;20196;-75
2021/12/12 04:09:33;;;;;;;7.40;4.50;;;;;;;;;;5129307;28;20549;-75
2021/12/12 04:12:02;;;;;;;6.55;4.25;;;;;;;;;;5130679;27;20409;-76
2021/12/12 04:14:30;;;;;;;7.78;4.70;;;;;;;;;;5129024;27;20191;-75
2021/12/12 04:16:58;;;;;;;14.68;4.80;;;;;;;;;;5121048;27;20681;-75
2021/12/12 04:19:26;;;;;;;9.60;5.22;;;;;;;;;;5138243;27;20219;-75
2021/12/12 04:21:54;;;;;;;8.10;5.35;;;;;;;;;;5137468;27;20621;-76
2021/12/12 04:24:23;;;;;;;10.38;4.55;;;;;;;;;;5131390;27;20203;-75
2021/12/12 04:26:50;;;;;;;7.80;4.20;;;;;;;;;;5132488;27;20778;-75
2021/12/12 04:29:18;;;;;;;13.32;4.95;;;;;;;;;;5125254;27;20188;-77
2021/12/12 04:31:48;;;;;;;9.75;5.43;;;;;;;;;;5128497;27;20550;-75
2021/12/12 04:34:16;;;;;;;8.38;5.78;;;;;;;;;;5119424;27;20221;-77
2021/12/12 04:36:45;;;;;;;9.65;4.72;;;;;;;;;;5141046;27;20721;-76
2021/12/12 04:39:16;;;;;;;8.45;5.65;;;;;;;;;;5144610;27;20227;-76
2021/12/12 04:41:44;;;;;;;7.60;5.20;;;;;;;;;;5152019;27;20191;-76
2021/12/12 04:44:11;;;;;;;8.73;5.25;;;;;;;;;;5154142;27;20204;-76
2021/12/12 04:52:08;;;;;;;9.95;5.70;;;;;;;;;;5117133;27;20193;-76
2021/12/12 04:54:40;;;;;;;11.10;5.90;;;;;;;;;;5114998;28;20197;-76
2021/12/12 04:57:08;;;;;;;7.45;5.55;;;;;;;;;;5127567;27;20199;-76
2021/12/12 04:59:42;;;;;;;15.35;5.82;;;;;;;;;;5140073;27;20226;-76
2021/12/12 05:02:12;;;;;;;9.80;5.43;;;;;;;;;;5133327;27;20200;-76
2021/12/12 05:04:47;;;;;;;9.77;6.18;;;;;;;;;;5131572;27;20220;-76
2021/12/12 05:07:17;;;;;;;9.20;6.30;;;;;;;;;;5129684;27;20206;-76
2021/12/12 05:09:50;;;;;;;8.00;6.30;;;;;;;;;;5128037;27;20184;-76
2021/12/12 05:12:20;;;;;;;9.98;7.03;;;;;;;;;;5120143;27;20208;-77
2021/12/12 05:14:51;;;;;;;9.25;5.47;;;;;;;;;;5114742;28;20584;-76
2021/12/12 05:17:21;;;;;;;10.65;6.40;;;;;;;;;;5113854;28;20204;-76
2021/12/12 05:19:52;;;;;;;13.15;6.85;;;;;;;;;;5128905;27;20206;-76
2021/12/12 05:22:21;;;;;;;9.15;6.75;;;;;;;;;;5137243;27;20671;-76
2021/12/12 05:24:52;;;;;;;13.48;6.18;;;;;;;;;;5119607;27;20216;-77
2021/12/12 05:27:21;;;;;;;12.07;7.15;;;;;;;;;;5111602;27;20201;-76
2021/12/12 05:29:51;;;;;;;13.18;6.65;;;;;;;;;;5126208;27;20667;-76
2021/12/12 05:32:18;;;;;;;10.52;6.80;;;;;;;;;;5132832;27;20566;-76
2021/12/12 05:34:48;;;;;;;14.93;7.63;;;;;;;;;;5120584;27;20225;-76
2021/12/12 05:37:16;;;;;;;20.20;7.05;;;;;;;;;;5131641;27;20195;-77
2021/12/12 05:39:44;;;;;;;10.95;6.00;;;;;;;;;;5139384;27;20223;-76
2021/12/12 05:42:13;;;;;;;10.25;6.55;;;;;;;;;;5133197;27;20208;-76
2021/12/12 05:44:40;;;;;;;17.63;7.10;;;;;;;;;;5130453;27;20230;-76
2021/12/12 05:47:08;;;;;;;13.20;7.07;;;;;;;;;;5132330;27;20207;-77
2021/12/12 05:49:37;;;;;;;15.23;7.22;;;;;;;;;;5131411;27;20562;-76
2021/12/12 05:52:07;;;;;;;14.15;7.05;;;;;;;;;;5126727;27;20203;-76
2021/12/12 05:54:34;;;;;;;12.23;7.38;;;;;;;;;;5140163;27;20245;-76
2021/12/12 05:57:01;;;;;;;8.25;6.32;;;;;;;;;;5137929;27;20188;-77
2021/12/12 05:59:30;;;;;;;14.20;7.05;;;;;;;;;;5130186;27;20215;-75
2021/12/12 06:01:58;;;;;;;14.75;6.90;;;;;;;;;;5129891;27;20199;-76
2021/12/12 06:04:25;;;;;;;16.95;7.97;;;;;;;;;;5130709;27;20202;-76
2021/12/12 06:06:52;;;;;;;18.27;8.20;;;;;;;;;;5111286;28;20193;-76
2021/12/12 06:09:21;;;;;;;12.32;7.30;;;;;;;;;;5115497;27;20205;-76
2021/12/12 06:11:50;;;;;;;12.95;6.15;;;;;;;;;;5137242;27;20203;-76
2021/12/12 06:14:18;;;;;;;14.15;6.93;;;;;;;;;;5133205;27;20204;-77
2021/12/12 06:16:47;;;;;;;19.35;7.38;;;;;;;;;;5123195;27;20222;-77
2021/12/12 06:19:15;;;;;;;16.13;6.72;;;;;;;;;;5126942;27;20575;-76
2021/12/12 06:21:43;;;;;;;22.35;7.45;;;;;;;;;;5123329;27;20620;-76
2021/12/12 06:24:11;;;;;;;10.52;7.03;;;;;;;;;;5125440;27;20291;-76
2021/12/12 06:26:39;;;;;;;12.30;7.00;;;;;;;;;;5119060;27;20223;-76
2021/12/12 06:29:06;;;;;;;15.25;7.28;;;;;;;;;;5133057;27;20199;-76
2021/12/12 06:31:41;;;;;;;10.57;6.30;;;;;;;;;;5145048;27;20196;-77
2021/12/12 06:34:11;;;;;;;13.15;7.20;;;;;;;;;;5149008;27;20195;-76
2021/12/12 06:36:38;;;;;;;16.63;6.85;;;;;;;;;;5149667;27;20215;-76
2021/12/12 06:39:07;;;;;;;14.25;6.55;;;;;;;;;;5134683;27;20220;-75
2021/12/12 06:41:35;;;;;;;15.27;7.10;;;;;;;;;;5122357;27;20203;-76
2021/12/12 06:44:04;;;;;;;16.88;6.72;;;;;;;;;;5136138;27;20198;-76
2021/12/12 06:46:31;;;;;;;10.18;6.13;;;;;;;;;;5140495;27;20283;-76
2021/12/12 06:48:59;;;;;;;15.60;6.63;;;;;;;;;;5151550;27;20203;-76
2021/12/12 06:51:28;;;;;;;14.68;7.38;;;;;;;;;;5140514;27;20192;-76
2021/12/12 06:53:56;;;;;;;12.57;6.70;;;;;;;;;;5129610;27;20554;-76
2021/12/12 06:56:23;;;;;;;15.40;6.55;;;;;;;;;;5131419;27;20216;-76
2021/12/12 06:58:51;;;;;;;13.65;6.53;;;;;;;;;;5123045;27;20231;-76
2021/12/12 07:01:19;;;;;;;10.63;5.93;;;;;;;;;;5132309;27;20203;-75
2021/12/12 07:03:48;;;;;;;12.52;6.15;;;;;;;;;;5133038;27;20196;-75
2021/12/12 07:06:18;;;;;;;11.68;6.57;;;;;;;;;;5135312;27;20223;-76
2021/12/12 07:08:47;;;;;;;11.90;6.22;;;;;;;;;;5137272;27;20218;-76
2021/12/12 07:11:17;;;;;;;14.02;7.00;;;;;;;;;;5128891;27;20203;-76
2021/12/12 07:13:44;;;;;;;13.23;5.82;;;;;;;;;;5130951;27;20196;-75
2021/12/12 07:16:11;;;;;;;14.00;6.78;;;;;;;;;;5128571;27;20216;-76
2021/12/12 07:18:38;;;;;;;8.90;6.00;;;;;;;;;;5130806;27;20216;-76
2021/12/12 07:21:07;;;;;;;14.35;7.03;;;;;;;;;;5114575;27;20197;-76
2021/12/12 07:23:34;;;;;;;15.82;5.93;;;;;;;;;;5111341;28;20202;-75
2021/12/12 07:26:04;;;;;;;12.52;6.60;;;;;;;;;;5112102;28;20216;-76
2021/12/12 07:28:32;;;;;;;11.10;6.45;;;;;;;;;;5132860;27;20560;-75
2021/12/12 07:31:00;;;;;;;13.18;6.45;;;;;;;;;;5132707;27;20282;-76
2021/12/12 07:33:28;;;;;;;13.40;6.85;;;;;;;;;;5128425;27;20652;-76
2021/12/12 07:35:58;;;;;;;7.95;6.22;;;;;;;;;;5130745;27;20263;-76
2021/12/12 07:38:26;;;;;;;9.05;6.22;;;;;;;;;;5130535;27;20223;-75
2021/12/12 07:40:53;;;;;;;15.88;5.88;;;;;;;;;;5129223;27;20200;-76
2021/12/12 07:43:22;;;;;;;13.20;6.80;;;;;;;;;;5122286;27;20664;-76
2021/12/12 07:45:49;;;;;;;12.45;6.70;;;;;;;;;;5138551;27;20223;-75
2021/12/12 07:48:17;;;;;;;14.88;6.30;;;;;;;;;;5126550;27;20330;-75
2021/12/12 07:50:45;;;;;;;10.48;6.15;;;;;;;;;;5113800;28;20549;-75
2021/12/12 07:53:12;;;;;;;10.05;6.10;;;;;;;;;;5113131;27;20193;-76
2021/12/12 07:55:40;;;;;;;10.50;5.65;;;;;;;;;;5129043;27;20303;-75
2021/12/12 07:58:08;;;;;;;9.23;5.57;;;;;;;;;;5112857;27;20222;-76
2021/12/12 08:00:37;;;;;;;10.77;5.78;;;;;;;;;;5125835;27;20215;-76
2021/12/12 08:03:04;;;;;;;8.90;5.50;;;;;;;;;;5141248;27;20644;-76
2021/12/12 08:05:32;;;;;;;8.13;5.50;;;;;;;;;;5136023;27;20226;-76
2021/12/12 08:08:02;;;;;;;12.18;5.65;;;;;;;;;;5130318;27;20227;-76
2021/12/12 08:10:30;;;;;;;6.47;4.97;;;;;;;;;;5116452;27;20204;-76
2021/12/12 08:12:57;;;;;;;9.52;5.03;;;;;;;;;;5112134;28;20200;-76
2021/12/12 08:15:44;;;;;;;7.65;4.78;;;;;;;;;;5118790;27;20215;-77
2021/12/12 08:18:18;;;;;;;7.78;4.20;;;;;;;;;;5136205;27;20199;-75
2021/12/12 08:20:46;;;;;;;9.20;4.22;;;;;;;;;;5135851;27;20237;-76
2021/12/12 08:23:14;;;;;;;7.95;3.72;;;;;;;;;;5132813;27;20207;-76
2021/12/12 08:25:41;;;;;;;7.97;4.00;;;;;;;;;;5132018;27;20212;-76
2021/12/12 08:28:09;;;;;;;4.43;3.30;;;;;;;;;;5118885;27;20201;-76
2021/12/12 08:30:36;;;;;;;5.95;3.72;;;;;;;;;;5110835;28;20197;-76
2021/12/12 08:33:05;;;;;;;4.30;3.80;;;;;;;;;;5113863;27;20222;-72
2021/12/12 08:35:34;;;;;;;6.72;4.18;;;;;;;;;;5135991;27;20223;-75
2021/12/12 08:38:02;;;;;;;4.10;3.65;;;;;;;;;;5142976;27;20223;-75
2021/12/12 08:40:31;;;;;;;6.93;3.42;;;;;;;;;;5154128;27;20211;-75
2021/12/12 08:42:59;;;;;;;4.00;3.47;;;;;;;;;;5153039;27;20242;-75
2021/12/12 08:45:27;;;;;;;4.63;3.40;;;;;;;;;;5152557;27;20222;-75
2021/12/12 08:47:55;;;;;;;4.82;3.10;;;;;;;;;;5152051;27;20674;-76
2021/12/12 08:50:23;;;;;;;5.20;3.50;;;;;;;;;;5134170;27;20595;-75
2021/12/12 08:52:52;;;;;;;6.38;3.40;;;;;;;;;;5138769;27;20199;-75
2021/12/12 08:55:21;;;;;;;3.95;3.50;;;;;;;;;;5128645;27;20414;-76
2021/12/12 08:57:58;;;;;;;3.83;3.05;;;;;;;;;;5111975;28;20199;-75
2021/12/12 09:00:27;;;;;;;4.55;3.40;;;;;;;;;;5111000;28;20580;-75
2021/12/12 09:02:55;;;;;;;3.72;3.30;;;;;;;;;;5112714;28;20196;-75
2021/12/12 09:05:24;;;;;;;5.00;3.13;;;;;;;;;;5111729;28;20219;-75
2021/12/12 09:07:53;;;;;;;4.57;3.40;;;;;;;;;;5115810;27;20193;-75
2021/12/12 09:10:22;;;;;;;5.88;3.00;;;;;;;;;;5114645;28;20185;-74
2021/12/12 09:12:51;;;;;;;3.92;2.60;;;;;;;;;;5119843;27;20735;-76
2021/12/12 09:15:20;;;;;;;3.42;2.83;;;;;;;;;;5138772;27;20219;-75
2021/12/12 09:17:49;;;;;;;2.38;2.17;;;;;;;;;;5147434;27;20611;-75
2021/12/12 09:20:19;;;;;;;4.25;2.22;;;;;;;;;;5153751;27;20215;-75
2021/12/12 09:22:55;;;;;;;4.45;2.60;;;;;;;;;;5127730;27;20223;-75
2021/12/12 09:25:34;;;;;;;4.43;2.58;;;;;;;;;;5128943;27;20226;-75
2021/12/12 09:28:04;;;;;;;5.15;2.90;;;;;;;;;;5111277;28;20201;-74
2021/12/12 09:30:31;;;;;;;2.47;2.13;;;;;;;;;;5111910;28;20653;-75
2021/12/12 09:33:01;;;;;;;5.57;2.75;;;;;;;;;;5113469;28;20193;-76
2021/12/12 09:35:31;;;;;;;2.35;2.15;;;;;;;;;;5132052;27;20675;-73
2021/12/12 09:38:00;;;;;;;2.00;1.80;;;;;;;;;;5139279;27;20242;-73
2021/12/12 09:40:40;;;;;;;2.40;2.20;;;;;;;;;;5148022;27;20221;-74
2021/12/12 09:43:20;;;;;;;2.72;2.47;;;;;;;;;;5151891;27;20191;-73
2021/12/12 09:45:56;;;;;;;2.97;2.25;;;;;;;;;;5153339;27;20240;-73
2021/12/12 09:51:22;;;;;;;2.55;1.92;;;;;;;;;;5124714;27;20225;-73
2021/12/12 09:53:58;;;;;;;2.60;2.17;;;;;;;;;;5136337;27;20207;-72
2021/12/12 09:56:31;;;;;;;3.70;2.50;;;;;;;;;;5131868;27;20219;-73
2021/12/12 09:59:03;;;;;;;3.45;2.92;;;;;;;;;;5131827;27;20196;-72
2021/12/12 10:01:31;;;;;;;3.42;2.53;;;;;;;;;;5130553;27;20195;-73
2021/12/12 10:04:09;;;;;;;3.13;2.80;;;;;;;;;;5112112;27;20200;-73
2021/12/12 10:06:40;;;;;;;4.85;3.20;;;;;;;;;;5129573;27;20268;-73
2021/12/12 10:09:10;;;;;;;4.95;3.85;;;;;;;;;;5137266;27;20198;-73
2021/12/12 10:11:41;;;;;;;4.65;3.70;;;;;;;;;;5129088;27;20653;-73
2021/12/12 10:14:12;;;;;;;6.63;4.70;;;;;;;;;;5131828;27;20196;-75
2021/12/12 10:16:41;;;;;;;8.80;5.20;;;;;;;;;;5130090;27;20212;-75
2021/12/12 10:19:13;;;;;;;5.65;4.28;;;;;;;;;;5123634;27;20736;-75
2021/12/12 10:21:45;;;;;;;9.65;4.35;;;;;;;;;;5116391;27;20200;-76
2021/12/12 10:24:19;;;;;;;4.85;3.65;;;;;;;;;;5137868;27;20655;-75
2021/12/12 10:26:54;;;;;;;5.55;4.00;;;;;;;;;;5147403;27;20534;-74
2021/12/12 10:29:24;;;;;;;7.35;4.35;;;;;;;;;;5128268;27;20199;-75
2021/12/12 10:31:53;;;;;;;5.68;3.65;;;;;;;;;;5128915;27;20200;-74
2021/12/12 10:34:22;;;;;;;5.90;3.78;;;;;;;;;;5129855;27;20532;-74
2021/12/12 10:36:52;;;;;;;3.53;3.22;;;;;;;;;;5128942;27;20217;-74
2021/12/12 10:39:23;;;;;;;5.68;3.88;;;;;;;;;;5139197;27;20601;-74
2021/12/12 10:41:55;;;;;;;5.50;4.80;;;;;;;;;;5137664;27;20216;-74
2021/12/12 10:44:24;;;;;;;4.80;4.20;;;;;;;;;;5130912;27;20569;-74
2021/12/12 10:46:56;;;;;;;3.92;3.53;;;;;;;;;;5130884;27;20209;-74
2021/12/12 10:49:27;;;;;;;4.65;4.03;;;;;;;;;;5129630;27;20196;-74
2021/12/12 10:51:58;;;;;;;4.25;3.80;;;;;;;;;;5126815;27;20210;-72
2021/12/12 10:54:28;;;;;;;4.72;4.25;;;;;;;;;;5137340;27;20680;-74
2021/12/12 10:57:02;;;;;;;5.00;3.97;;;;;;;;;;5142530;27;20211;-74
2021/12/12 10:59:32;;;;;;;5.90;3.40;;;;;;;;;;5129743;27;20568;-74
2021/12/12 11:02:01;;;;;;;5.28;3.58;;;;;;;;;;5120476;27;20200;-75
2021/12/12 11:04:34;;;;;;;4.25;3.17;;;;;;;;;;5111013;28;20199;-74
2021/12/12 11:07:03;;;;;;;3.33;2.75;;;;;;;;;;5112126;28;20209;-73
2021/12/12 11:09:34;;;;;;;5.30;3.60;;;;;;;;;;5126705;28;20196;-74
2021/12/12 11:12:07;;;;;;;4.83;3.57;;;;;;;;;;5121087;27;20206;-74
2021/12/12 11:14:37;;;;;;;4.10;3.70;;;;;;;;;;5135013;27;20473;-74
2021/12/12 11:17:06;;;;;;;4.13;3.27;;;;;;;;;;5137217;27;20671;-75
2021/12/12 11:19:36;;;;;;;6.05;4.25;;;;;;;;;;5130839;27;20441;-74
2021/12/12 11:22:05;;;;;;;3.75;3.17;;;;;;;;;;5130677;27;20234;-75
2021/12/12 11:24:34;;;;;;;3.13;2.83;;;;;;;;;;5132426;27;20580;-75
2021/12/12 11:27:05;;;;;;;3.63;3.00;;;;;;;;;;5122697;27;20196;-75
2021/12/12 11:29:33;;;;;;;4.20;2.80;;;;;;;;;;5115451;28;20448;-75
2021/12/12 11:32:03;;;;;;;3.05;2.75;;;;;;;;;;5114587;27;20200;-75
2021/12/12 11:34:31;;;;;;;4.03;2.85;;;;;;;;;;5116480;28;20196;-75
2021/12/12 11:37:06;;;;;;;4.97;3.00;;;;;;;;;;5129922;27;20214;-75
2021/12/12 11:39:36;;;;;;;5.38;3.78;;;;;;;;;;5142293;27;20219;-75
2021/12/12 11:42:06;;;;;;;6.10;3.67;;;;;;;;;;5142338;27;20266;-75
2021/12/12 11:44:38;;;;;;;4.57;3.40;;;;;;;;;;5134709;27;20439;-76
2021/12/12 11:47:08;;;;;;;7.13;3.70;;;;;;;;;;5133459;27;20494;-76
2021/12/12 11:49:42;;;;;;;4.20;3.27;;;;;;;;;;5132550;27;20221;-75
2021/12/12 11:52:10;;;;;;;5.13;3.87;;;;;;;;;;5131824;27;20439;-75
2021/12/12 11:54:43;;;;;;;4.88;3.63;;;;;;;;;;5141645;27;20432;-75
2021/12/12 11:57:13;;;;;;;8.87;4.20;;;;;;;;;;5113805;27;20205;-75
2021/12/12 11:59:45;;;;;;;6.13;4.60;;;;;;;;;;5129065;27;20456;-76
2021/12/12 12:02:27;;;;;;;5.22;4.72;;;;;;;;;;5126835;27;20434;-76
2021/12/12 12:05:01;;;;;;;7.23;4.80;;;;;;;;;;5111918;28;20234;-75
2021/12/12 12:07:36;;;;;;;5.93;4.80;;;;;;;;;;5139508;27;20451;-75
2021/12/12 12:10:09;;;;;;;7.17;4.80;;;;;;;;;;5126671;27;20453;-76
2021/12/12 12:12:44;;;;;;;6.27;4.87;;;;;;;;;;5124207;27;20507;-75
2021/12/12 12:15:14;;;;;;;6.87;4.40;;;;;;;;;;5132680;27;20856;-75
2021/12/12 12:17:48;;;;;;;9.20;4.93;;;;;;;;;;5132236;27;20452;-75
2021/12/12 12:20:23;;;;;;;5.13;4.03;;;;;;;;;;5129817;27;20500;-75
2021/12/12 12:22:54;;;;;;;7.20;4.40;;;;;;;;;;5136583;27;21436;-76
2021/12/12 12:25:25;;;;;;;6.53;2.80;;;;;;;;;;5150515;27;20914;-79
2021/12/12 12:27:55;;;;;;;4.77;3.63;;;;;;;;;;5153917;27;20440;-74
2021/12/12 12:30:33;;;;;;;4.67;3.00;;;;;;;;;;5153177;27;20468;-75
2021/12/12 12:33:15;;;;;;;2.80;2.50;;;;;;;;;;5148880;27;20453;-75
2021/12/12 12:35:57;;;;;;;2.80;2.50;;;;;;;;;;5111003;27;20474;-75
2021/12/12 12:38:39;;;;;;;3.93;2.40;;;;;;;;;;5137528;27;20485;-74
2021/12/12 12:41:21;;;;;;;4.27;2.80;;;;;;;;;;5147561;27;20480;-76
2021/12/12 12:44:03;;;;;;;2.83;2.33;;;;;;;;;;5153698;27;20428;-76
2021/12/12 12:46:45;;;;;;;2.60;2.30;;;;;;;;;;5125908;27;20487;-75
2021/12/12 12:49:27;;;;;;;2.83;2.50;;;;;;;;;;5112372;28;20431;-75
2021/12/12 12:52:09;;;;;;;2.30;2.10;;;;;;;;;;5115859;27;20476;-75
2021/12/12 12:54:44;;;;;;;2.60;2.10;;;;;;;;;;5141238;27;20428;-76
2021/12/12 12:57:20;;;;;;;3.33;2.03;;;;;;;;;;5141805;27;20457;-75
2021/12/12 12:59:55;;;;;;;4.73;1.77;;;;;;;;;;5131533;27;20437;-75
2021/12/12 13:02:24;;;;;;;1.60;1.47;;;;;;;;;;5125663;27;20998;-75
2021/12/12 13:05:16;;;;;;;3.50;2.50;;;;;;;;;;5112673;28;20815;-75
2021/12/12 13:08:12;;;;;;;2.10;1.60;;;;;;;;;;5126428;27;20463;-75
2021/12/12 13:10:41;;;;;;;1.80;1.53;;;;;;;;;;5141270;27;20432;-75
2021/12/12 13:13:13;;;;;;;2.43;1.70;;;;;;;;;;5153008;27;20435;-76
2021/12/12 13:15:45;;;;;;;2.60;1.77;;;;;;;;;;5132927;27;20476;-76
2021/12/12 13:18:20;;;;;;;2.93;2.20;;;;;;;;;;5133097;27;20438;-76
2021/12/12 13:21:02;;;;;;;3.03;2.23;;;;;;;;;;5126422;27;20489;-75
2021/12/12 13:23:36;;;;;;;3.30;2.03;;;;;;;;;;5135076;27;20847;-76
2021/12/12 13:26:05;;;;;;;2.73;2.30;;;;;;;;;;5145961;27;20460;-75
2021/12/12 13:28:37;;;;;;;1.70;1.60;;;;;;;;;;5154333;27;20440;-75
2021/12/12 13:31:16;;;;;;;1.90;1.77;;;;;;;;;;5152876;27;20440;-75
2021/12/12 13:33:45;;;;;;;3.03;1.83;;;;;;;;;;5152264;27;20455;-75
2021/12/12 13:36:27;;;;;;;2.23;2.03;;;;;;;;;;5135801;27;20476;-75
2021/12/12 13:39:04;;;;;;;4.83;2.50;;;;;;;;;;5139341;27;20487;-75
2021/12/12 13:41:40;;;;;;;2.87;2.20;;;;;;;;;;5125955;27;20481;-75
2021/12/12 13:44:13;;;;;;;2.20;1.93;;;;;;;;;;5110839;28;20438;-75
2021/12/12 13:46:44;;;;;;;3.37;2.03;;;;;;;;;;5109929;28;20484;-75
2021/12/12 13:49:17;;;;;;;2.20;2.00;;;;;;;;;;5119297;27;20449;-75
2021/12/12 13:51:47;;;;;;;2.13;1.80;;;;;;;;;;5119450;27;20837;-75
2021/12/12 13:54:21;;;;;;;1.43;1.33;;;;;;;;;;5117388;27;20479;-75
2021/12/12 13:56:54;;;;;;;2.60;1.47;;;;;;;;;;5132932;27;20445;-75
2021/12/12 13:59:24;;;;;;;1.90;1.70;;;;;;;;;;5136429;27;20429;-76
2021/12/12 14:01:54;;;;;;;3.10;1.90;;;;;;;;;;5139935;27;20468;-76
2021/12/12 14:04:23;;;;;;;2.43;1.80;;;;;;;;;;5148901;27;20933;-76
2021/12/12 14:06:51;;;;;;;2.07;1.70;;;;;;;;;;5152979;27;20447;-75
2021/12/12 14:09:20;;;;;;;2.30;1.50;;;;;;;;;;5148787;27;20436;-75
2021/12/12 14:11:49;;;;;;;3.43;2.00;;;;;;;;;;5132636;27;20437;-75
2021/12/12 14:14:22;;;;;;;1.90;1.47;;;;;;;;;;5121422;27;20666;-76
2021/12/12 14:16:51;;;;;;;1.87;1.77;;;;;;;;;;5130601;27;20722;-75
2021/12/12 14:19:24;;;;;;;2.33;1.97;;;;;;;;;;5132787;27;20455;-75
2021/12/12 14:21:51;;;;;;;2.17;1.70;;;;;;;;;;5128898;27;20488;-75
2021/12/12 14:24:19;;;;;;;3.40;2.20;;;;;;;;;;5138218;27;20806;-75
2021/12/12 14:26:48;;;;;;;3.03;1.97;;;;;;;;;;5131292;27;20446;-76
2021/12/12 14:29:17;;;;;;;2.50;2.30;;;;;;;;;;5131366;27;20432;-77
2021/12/12 14:31:51;;;;;;;2.83;2.20;;;;;;;;;;5129715;27;21001;-76
2021/12/12 14:34:22;;;;;;;3.07;2.17;;;;;;;;;;5130984;27;20445;-76
2021/12/12 14:36:50;;;;;;;2.90;2.30;;;;;;;;;;5130287;27;20458;-76
2021/12/12 14:39:20;;;;;;;3.90;2.10;;;;;;;;;;5136915;27;20989;-76
2021/12/12 14:41:56;;;;;;;3.80;2.30;;;;;;;;;;5132040;27;21051;-76
2021/12/12 14:44:27;;;;;;;2.33;2.13;;;;;;;;;;5127477;27;20640;-75
2021/12/12 14:46:58;;;;;;;3.67;2.73;;;;;;;;;;5131596;27;20582;-75
2021/12/12 14:49:29;;;;;;;3.20;2.60;;;;;;;;;;5121773;27;20856;-75
2021/12/12 14:51:59;;;;;;;2.87;2.20;;;;;;;;;;5116638;27;20553;-75
2021/12/12 14:54:27;;;;;;;4.17;2.70;;;;;;;;;;5135358;27;20949;-76
2021/12/12 14:56:56;;;;;;;3.57;2.60;;;;;;;;;;5131744;27;20462;-75
2021/12/12 14:59:26;;;;;;;3.73;2.73;;;;;;;;;;5149574;27;21099;-76
2021/12/12 15:01:55;;;;;;;3.67;2.57;;;;;;;;;;5151695;27;20476;-76
2021/12/12 15:04:26;;;;;;;2.90;2.60;;;;;;;;;;5110618;27;20461;-75
2021/12/12 15:06:54;;;;;;;4.37;3.10;;;;;;;;;;5109070;28;20441;-76
2021/12/12 15:09:23;;;;;;;4.03;2.83;;;;;;;;;;5112963;27;20458;-75
2021/12/12 15:11:54;;;;;;;3.33;3.03;;;;;;;;;;5136500;27;20429;-75
2021/12/12 15:14:24;;;;;;;3.30;2.70;;;;;;;;;;5134684;27;20436;-75
2021/12/12 15:16:52;;;;;;;3.43;2.40;;;;;;;;;;5131064;27;20537;-75
2021/12/12 15:19:22;;;;;;;2.63;2.43;;;;;;;;;;5109917;27;20477;-75
2021/12/12 15:21:57;;;;;;;4.90;2.70;;;;;;;;;;5108680;28;20473;-75